Time;durP1;ratioP1;P1;durP2;ratioP2;P2;SDS_P1;SDS_P2;PMS_P1;PMS_P2;Temp;Humidity;BMP_temperature;BMP_pressure;BME280_temperature;BME280_humidity;BME280_pressure;Samples;Min_cycle;Max_cycle;Signal;HPM_P1;HPM_P2
2023/06/25 00:01:35;;;;;;;3.47;2.85;;;18.40;99.90;;;17.99;100.00;101226.00;4168184;28;20432;-76
2023/06/25 00:03:36;;;;;;;5.97;2.83;;;18.40;99.90;;;17.95;100.00;101222.09;4167987;28;20028;-76
2023/06/25 00:05:37;;;;;;;3.58;2.50;;;18.40;99.90;;;17.95;100.00;101227.44;4185628;28;20029;-76
2023/06/25 00:07:40;;;;;;;3.70;2.72;;;18.30;99.90;;;17.86;100.00;101216.03;4185720;28;20389;-76
2023/06/25 00:09:55;;;;;;;5.18;2.78;;;18.30;99.90;;;17.84;100.00;101219.91;4185450;28;20055;-76
2023/06/25 00:11:55;;;;;;;;;;;18.30;99.90;;;17.68;100.00;101211.16;4186302;28;20033;-76
2023/06/25 00:13:56;;;;;;;5.90;3.38;;;18.20;99.90;;;17.67;100.00;101198.84;4151397;28;20058;-76
2023/06/25 00:15:57;;;;;;;3.85;2.75;;;18.20;99.90;;;17.68;100.00;101203.13;4167986;28;20032;-76
2023/06/25 00:17:58;;;;;;;4.22;2.95;;;18.20;99.90;;;17.60;100.00;101192.59;4167768;28;20037;-76
2023/06/25 00:19:59;;;;;;;5.07;2.95;;;18.10;99.90;;;17.52;100.00;101175.88;4167955;28;20025;-76
2023/06/25 00:22:00;;;;;;;5.15;2.88;;;18.10;99.90;;;17.56;100.00;101190.53;4185296;28;20033;-76
2023/06/25 00:24:01;;;;;;;4.55;3.17;;;18.10;99.90;;;17.56;100.00;101195.84;4185707;28;20542;-76
2023/06/25 00:26:02;;;;;;;4.82;3.10;;;18.00;99.90;;;17.52;100.00;101195.38;4167523;28;20105;-76
2023/06/25 00:28:08;;;;;;;4.72;3.03;;;18.00;99.90;;;17.41;100.00;101187.84;4184087;28;20025;-76
2023/06/25 00:30:09;;;;;;;5.22;3.10;;;17.90;99.90;;;17.50;100.00;101207.25;4151667;28;20030;-76
2023/06/25 00:32:13;;;;;;;3.83;3.03;;;17.90;99.90;;;17.45;100.00;101196.31;4151451;28;20080;-76
2023/06/25 00:34:14;;;;;;;;;;;17.90;99.90;;;17.46;100.00;101204.13;4168145;28;20144;-76
2023/06/25 00:36:15;;;;;;;6.30;3.10;;;17.90;99.90;;;17.39;100.00;101197.06;4179437;28;19912;-76
2023/06/25 00:38:19;;;;;;;4.40;3.05;;;17.80;99.90;;;17.19;100.00;101166.69;4167577;28;20025;-76
2023/06/25 00:40:20;;;;;;;4.03;3.45;;;17.80;99.90;;;17.20;100.00;101171.88;4151474;28;20033;-76
2023/06/25 00:42:21;;;;;;;4.70;3.15;;;17.80;99.90;;;17.17;100.00;101172.25;4185285;28;20020;-76
2023/06/25 00:44:22;;;;;;;4.47;3.30;;;17.70;99.90;;;17.23;100.00;101179.47;4183872;28;20036;-76
2023/06/25 00:46:23;;;;;;;5.05;3.35;;;17.70;99.90;;;17.10;100.00;101158.81;4185095;28;20021;-76
2023/06/25 00:48:24;;;;;;;6.97;3.10;;;17.70;99.90;;;17.31;100.00;101182.03;4167768;28;20516;-76
2023/06/25 00:50:26;;;;;;;4.28;3.00;;;17.70;99.90;;;17.29;100.00;101185.91;4185187;28;20395;-76
2023/06/25 00:52:27;;;;;;;4.45;2.95;;;17.70;99.90;;;17.10;100.00;101158.00;4167709;28;20048;-76
2023/06/25 00:54:27;;;;;;;4.22;3.00;;;17.70;99.90;;;17.15;100.00;101174.25;4167266;28;20432;-76
2023/06/25 00:56:29;;;;;;;6.30;3.22;;;17.60;99.90;;;17.15;100.00;101174.25;4167334;28;20025;-76
2023/06/25 00:58:29;;;;;;;4.32;2.78;;;17.60;99.90;;;17.08;100.00;101168.84;4185196;28;20033;-76
2023/06/25 01:00:33;;;;;;;3.20;2.78;;;17.60;99.90;;;17.09;100.00;101167.00;4167310;28;20033;-76
2023/06/25 01:02:46;;;;;;;4.75;3.33;;;17.50;99.90;;;16.99;100.00;101145.16;4167284;28;20096;-76
2023/06/25 01:05:26;;;;;;;4.30;3.08;;;17.50;99.90;;;17.02;100.00;101172.25;4185050;28;20025;-76
2023/06/25 01:07:27;;;;;;;4.40;3.55;;;17.50;99.90;;;17.06;100.00;101181.53;4181880;28;20041;-76
2023/06/25 01:09:29;;;;;;;3.65;3.08;;;17.50;99.90;;;17.02;100.00;101179.44;4150965;28;20615;-76
2023/06/25 01:11:30;;;;;;;4.18;3.35;;;17.40;99.90;;;16.89;100.00;101152.63;4151067;28;20026;-76
2023/06/25 01:13:31;;;;;;;4.00;3.17;;;17.40;99.90;;;16.95;100.00;101171.38;4185006;28;20551;-76
2023/06/25 01:15:32;;;;;;;3.65;2.80;;;17.40;99.90;;;16.88;100.00;101156.28;4166942;28;20025;-76
2023/06/25 01:17:35;;;;;;;5.28;3.03;;;17.40;99.90;;;16.85;100.00;101154.81;4151162;28;20033;-76
2023/06/25 01:19:36;;;;;;;6.30;3.72;;;17.40;99.90;;;16.84;100.00;101163.84;4184719;28;20084;-76
2023/06/25 01:21:39;;;;;;;4.68;3.20;;;17.30;99.90;;;16.87;100.00;101154.66;4167362;28;20061;-75
2023/06/25 01:23:40;;;;;;;4.95;3.15;;;17.30;99.90;;;16.87;100.00;101165.31;4167085;28;20026;-76
2023/06/25 01:25:47;;;;;;;6.75;3.47;;;17.30;99.90;;;16.83;100.00;101161.38;4167039;28;20473;-76
2023/06/25 01:27:50;;;;;;;4.72;3.40;;;17.30;99.90;;;16.79;100.00;101166.22;4184858;28;20036;-76
2023/06/25 01:29:51;;;;;;;5.75;3.60;;;17.20;99.90;;;16.76;100.00;101157.78;4184843;28;20040;-75
2023/06/25 01:31:53;;;;;;;4.75;3.50;;;17.20;99.90;;;16.65;100.00;101134.28;4184705;28;20040;-76
2023/06/25 01:33:54;;;;;;;4.03;3.20;;;17.20;99.90;;;16.68;100.00;101141.91;4184376;28;20472;-76
2023/06/25 01:35:54;;;;;;;4.57;3.20;;;17.20;99.90;;;16.75;100.00;101153.47;4183440;28;20021;-76
2023/06/25 01:37:56;;;;;;;6.75;3.33;;;17.20;99.90;;;16.70;100.00;101148.69;4150656;28;20034;-75
2023/06/25 01:39:57;;;;;;;3.97;3.30;;;17.10;99.90;;;16.57;100.00;101132.56;4150457;28;20024;-76
2023/06/25 01:41:57;;;;;;;5.10;3.63;;;17.10;99.90;;;16.53;100.00;101129.41;4167119;28;20037;-76
2023/06/25 01:43:58;;;;;;;5.97;3.70;;;17.10;99.90;;;16.54;100.00;101131.09;4167138;28;20024;-76
2023/06/25 01:45:59;;;;;;;3.63;3.03;;;17.00;99.90;;;16.52;100.00;101122.41;4167105;28;20029;-76
2023/06/25 01:48:00;;;;;;;4.32;3.10;;;17.00;99.90;;;16.51;100.00;101125.28;4185539;28;20090;-76
2023/06/25 01:50:01;;;;;;;5.03;3.50;;;17.00;99.90;;;16.58;100.00;101140.34;4170058;28;20017;-76
2023/06/25 01:52:03;;;;;;;4.35;3.13;;;17.00;99.90;;;16.49;100.00;101128.13;4187967;28;20029;-76
2023/06/25 01:54:04;;;;;;;4.50;3.45;;;17.00;99.90;;;16.52;100.00;101132.25;4153625;28;20057;-76
2023/06/25 01:56:05;;;;;;;4.47;3.38;;;17.00;99.90;;;16.42;100.00;101116.56;4187470;28;20029;-76
2023/06/25 01:58:06;;;;;;;5.05;2.90;;;16.90;99.90;;;16.45;100.00;101132.19;4170222;28;20029;-76
2023/06/25 02:00:11;;;;;;;5.43;3.85;;;16.90;99.90;;;16.37;100.00;101121.59;4153681;28;20516;-75
2023/06/25 02:02:12;;;;;;;6.20;3.55;;;16.90;99.90;;;16.26;100.00;101103.44;4170833;28;20496;-75
2023/06/25 02:04:12;;;;;;;4.55;3.33;;;16.90;99.90;;;16.43;100.00;101134.19;4170020;28;20021;-76
2023/06/25 02:06:14;;;;;;;6.60;3.50;;;16.80;99.90;;;16.40;100.00;101123.91;4169811;28;20432;-75
2023/06/25 02:08:15;;;;;;;5.55;3.42;;;16.80;99.90;;;16.41;100.00;101128.22;4169912;28;20017;-76
2023/06/25 02:10:16;;;;;;;4.97;3.67;;;16.80;99.90;;;16.38;100.00;101123.25;4187480;28;20059;-76
2023/06/25 02:12:17;;;;;;;6.63;3.83;;;16.80;99.90;;;16.35;100.00;101118.31;4170010;28;20030;-76
2023/06/25 02:14:18;;;;;;;6.18;4.18;;;16.80;99.90;;;16.28;100.00;101104.06;4187663;28;20024;-75
2023/06/25 02:16:19;;;;;;;6.75;4.25;;;16.80;99.90;;;16.37;100.00;101118.94;4187656;28;20083;-75
2023/06/25 02:18:19;;;;;;;7.63;3.63;;;16.80;99.90;;;16.35;100.00;101125.47;4169531;28;20444;-76
2023/06/25 02:20:20;;;;;;;5.50;3.72;;;16.80;99.90;;;16.34;100.00;101121.13;4169425;28;20037;-76
2023/06/25 02:22:21;;;;;;;6.43;3.97;;;16.80;99.90;;;16.33;100.00;101124.81;4153369;28;20050;-76
2023/06/25 02:24:22;;;;;;;5.28;3.90;;;16.80;99.90;;;16.21;100.00;101103.16;4169456;28;20145;-76
2023/06/25 02:26:23;;;;;;;4.53;3.58;;;16.80;99.90;;;16.35;100.00;101122.81;4169430;28;20028;-76
2023/06/25 02:28:24;;;;;;;6.00;4.00;;;16.80;99.90;;;16.24;100.00;101112.63;4186176;28;20040;-76
2023/06/25 02:30:25;;;;;;;5.15;3.40;;;16.80;99.90;;;16.10;100.00;101095.63;4169737;28;20563;-76
2023/06/25 02:32:26;;;;;;;4.90;3.30;;;16.70;99.90;;;16.22;100.00;101125.28;4169596;28;20034;-76
2023/06/25 02:34:27;;;;;;;7.18;4.00;;;16.70;99.90;;;16.24;100.00;101126.75;4155271;28;20057;-76
2023/06/25 02:36:28;;;;;;;6.63;3.80;;;16.70;99.90;;;16.20;100.00;101116.66;4183735;28;20494;-76
2023/06/25 02:38:28;;;;;;;5.63;3.53;;;16.70;99.90;;;16.24;100.00;101126.75;4186975;28;20544;-76
2023/06/25 02:40:29;;;;;;;7.53;3.90;;;16.70;99.90;;;16.25;100.00;101123.06;4169304;28;20083;-76
2023/06/25 02:42:30;;;;;;;4.80;3.63;;;16.70;99.90;;;16.15;100.00;101114.56;4187045;28;20056;-75
2023/06/25 02:44:31;;;;;;;5.15;3.55;;;16.70;99.90;;;16.14;100.00;101106.72;4187120;28;20032;-76
2023/06/25 02:46:32;;;;;;;4.45;3.42;;;16.70;99.90;;;16.25;100.00;101124.91;4169317;28;20025;-76
2023/06/25 02:48:37;;;;;;;4.90;3.28;;;16.70;99.90;;;16.22;100.00;101115.44;4187008;28;20036;-75
2023/06/25 02:50:38;;;;;;;4.78;3.95;;;16.70;99.90;;;16.16;100.00;101100.22;4169367;28;20104;-75
2023/06/25 02:52:39;;;;;;;5.20;4.32;;;16.70;99.90;;;16.27;100.00;101118.41;4169157;28;20057;-76
2023/06/25 02:54:40;;;;;;;5.57;3.50;;;16.70;99.90;;;16.15;100.00;101101.25;4168846;28;20029;-75
2023/06/25 02:56:41;;;;;;;4.82;3.60;;;16.70;99.90;;;16.23;100.00;101116.28;4169089;28;20029;-75
2023/06/25 02:58:42;;;;;;;4.35;3.15;;;16.70;99.90;;;16.14;100.00;101102.25;4168995;28;20021;-76
2023/06/25 03:00:43;;;;;;;5.07;3.33;;;16.60;99.90;;;16.16;100.00;101110.84;4169137;28;20037;-76
2023/06/25 03:02:44;;;;;;;6.63;3.80;;;16.60;99.90;;;16.24;100.00;101117.94;4168977;28;20021;-75
2023/06/25 03:04:45;;;;;;;5.32;3.30;;;16.60;99.90;;;16.14;100.00;101094.25;4186688;28;20029;-75
2023/06/25 03:06:45;;;;;;;4.18;3.15;;;16.70;99.90;;;16.26;100.00;101115.91;4175975;28;20116;-75
2023/06/25 03:08:46;;;;;;;5.13;3.45;;;16.70;99.90;;;16.24;100.00;101110.78;4169114;28;20029;-76
2023/06/25 03:10:47;;;;;;;5.60;3.83;;;16.70;99.90;;;16.24;100.00;101100.13;4186227;28;20516;-76
2023/06/25 03:12:48;;;;;;;5.90;3.63;;;16.70;99.90;;;16.19;100.00;101086.53;4169368;28;20104;-76
2023/06/25 03:14:49;;;;;;;4.20;3.53;;;16.70;99.90;;;16.33;100.00;101109.69;4186491;28;20400;-76
2023/06/25 03:16:50;;;;;;;4.60;3.42;;;16.70;99.90;;;16.31;100.00;101114.34;4168738;28;20034;-75
2023/06/25 03:18:51;;;;;;;7.00;3.72;;;16.70;99.90;;;16.26;100.00;101103.44;4168393;28;20056;-75
2023/06/25 03:20:52;;;;;;;9.15;3.80;;;16.70;99.90;;;16.30;100.00;101107.41;4168693;28;20034;-76
2023/06/25 03:22:53;;;;;;;5.80;3.60;;;16.70;99.90;;;16.16;100.00;101089.56;4185033;28;20492;-75
2023/06/25 03:24:54;;;;;;;5.82;3.53;;;16.70;99.90;;;16.33;100.00;101116.84;4186121;28;20025;-75
2023/06/25 03:26:55;;;;;;;4.43;3.47;;;16.70;99.90;;;16.29;100.00;101110.22;4186226;28;20024;-75
2023/06/25 03:28:58;;;;;;;6.18;3.67;;;16.70;99.90;;;16.25;100.00;101109.75;4186433;28;20150;-76
2023/06/25 03:30:59;;;;;;;7.93;3.50;;;16.70;99.90;;;16.13;100.00;101095.25;4168820;28;20029;-76
2023/06/25 03:33:00;;;;;;;5.32;3.90;;;16.70;99.90;;;16.22;100.00;101104.81;4168565;28;20051;-76
2023/06/25 03:35:01;;;;;;;4.45;3.40;;;16.70;99.90;;;16.22;100.00;101102.13;4168801;28;20042;-75
2023/06/25 03:37:02;;;;;;;5.95;3.78;;;16.60;99.90;;;16.20;100.00;101104.16;4186323;28;20029;-75
2023/06/25 03:39:03;;;;;;;4.95;3.72;;;16.60;99.90;;;16.16;100.00;101100.22;4186123;28;20503;-75
2023/06/25 03:41:04;;;;;;;5.15;3.60;;;16.60;99.90;;;16.08;100.00;101091.50;4184757;28;20025;-75
2023/06/25 03:43:05;;;;;;;6.35;3.92;;;16.60;99.90;;;16.07;100.00;101093.31;4151849;28;20026;-76
2023/06/25 03:45:07;;;;;;;6.07;4.20;;;16.60;99.90;;;15.95;100.00;101084.13;4168363;28;20036;-76
2023/06/25 03:47:08;;;;;;;5.75;3.70;;;16.50;99.90;;;15.83;100.00;101070.47;4168268;28;20033;-75
2023/06/25 03:49:09;;;;;;;4.80;3.80;;;16.40;99.90;;;15.93;100.00;101094.97;4168311;28;20021;-76
2023/06/25 03:51:10;;;;;;;5.03;3.88;;;16.40;99.90;;;15.81;100.00;101080.47;4151885;28;20037;-76
2023/06/25 03:53:11;;;;;;;4.60;3.53;;;16.30;99.90;;;15.89;100.00;101106.16;4168347;28;20028;-76
2023/06/25 03:55:12;;;;;;;5.40;3.83;;;16.30;99.90;;;15.85;100.00;101100.41;4168027;28;20034;-75
2023/06/25 03:57:13;;;;;;;5.90;3.65;;;16.30;99.90;;;15.87;100.00;101102.84;4168417;28;20029;-75
2023/06/25 03:59:14;;;;;;;6.80;4.35;;;16.30;99.90;;;15.77;100.00;101092.47;4186016;28;20025;-75
2023/06/25 04:01:15;;;;;;;5.35;3.72;;;16.30;99.90;;;15.81;100.00;101093.78;4184532;28;20058;-75
2023/06/25 04:03:16;;;;;;;4.85;3.90;;;16.30;99.90;;;15.79;100.00;101090.47;4168268;28;20067;-75
2023/06/25 04:05:17;;;;;;;5.43;3.97;;;16.30;99.90;;;15.77;100.00;101081.03;4185893;28;20105;-75
2023/06/25 04:07:18;;;;;;;6.05;3.80;;;16.30;99.90;;;15.74;100.00;101078.72;4185762;28;20090;-75
2023/06/25 04:09:19;;;;;;;5.97;3.58;;;16.30;99.90;;;15.77;100.00;101089.00;4185836;28;20028;-76
2023/06/25 04:11:20;;;;;;;5.82;4.38;;;16.30;99.90;;;15.80;100.00;101094.75;4183672;28;20029;-75
2023/06/25 04:13:21;;;;;;;5.55;3.63;;;16.30;99.90;;;15.84;100.00;101096.06;4151521;28;20029;-75
2023/06/25 04:15:21;;;;;;;5.57;4.15;;;16.30;99.90;;;15.90;100.00;101110.47;4185595;28;20082;-75
2023/06/25 04:17:22;;;;;;;6.50;3.70;;;16.30;99.90;;;15.85;100.00;101097.72;4185567;28;20025;-75
2023/06/25 04:19:23;;;;;;;6.63;4.82;;;16.30;99.90;;;15.80;100.00;101089.44;4167736;28;20057;-76
2023/06/25 04:21:24;;;;;;;6.35;4.30;;;16.30;99.90;;;15.87;100.00;101089.56;4167701;28;20032;-75
2023/06/25 04:23:25;;;;;;;6.65;4.40;;;16.30;99.90;;;15.88;100.00;101091.22;4168963;28;20073;-76
2023/06/25 04:25:26;;;;;;;5.43;4.05;;;16.30;99.90;;;15.89;100.00;101093.69;4167516;28;20033;-75
2023/06/25 04:27:27;;;;;;;6.10;4.18;;;16.30;99.90;;;15.87;100.00;101092.22;4168986;28;20017;-75
2023/06/25 04:29:28;;;;;;;7.65;4.25;;;16.30;99.90;;;15.92;100.00;101095.16;4167633;28;20436;-76
2023/06/25 04:31:29;;;;;;;4.60;3.83;;;16.40;99.90;;;15.98;100.00;101089.94;4151238;28;20041;-75
2023/06/25 04:33:29;;;;;;;5.40;4.20;;;16.40;99.90;;;15.93;100.00;101087.00;4168937;28;20080;-75
2023/06/25 04:35:30;;;;;;;5.30;4.13;;;16.40;99.90;;;15.94;100.00;101096.66;4169002;28;20036;-75
2023/06/25 04:37:31;;;;;;;5.15;3.90;;;16.40;99.90;;;15.97;100.00;101098.09;4167593;28;20028;-76
2023/06/25 04:39:32;;;;;;;5.90;4.05;;;16.40;99.90;;;15.97;100.00;101096.28;4167396;28;20035;-75
2023/06/25 04:41:33;;;;;;;6.55;4.65;;;16.40;99.90;;;16.00;100.00;101103.91;4167455;28;20026;-76
2023/06/25 04:43:34;;;;;;;5.72;4.10;;;16.40;99.90;;;15.97;100.00;101082.97;4167685;28;20107;-75
2023/06/25 04:45:35;;;;;;;5.20;4.00;;;16.50;99.90;;;16.08;100.00;101094.16;4167769;28;20037;-75
2023/06/25 04:47:36;;;;;;;5.57;4.28;;;16.50;99.90;;;15.99;100.00;101077.47;4167453;28;20024;-75
2023/06/25 04:49:37;;;;;;;6.53;3.88;;;16.50;99.90;;;16.03;100.00;101090.22;4199361;28;20107;-75
2023/06/25 04:51:38;;;;;;;8.05;3.85;;;16.60;99.90;;;16.11;100.00;101086.63;4167763;28;20040;-75
2023/06/25 04:53:39;;;;;;;5.30;4.05;;;16.60;99.90;;;16.27;100.00;101112.25;4167494;28;20026;-75
2023/06/25 04:55:40;;;;;;;6.13;3.67;;;16.60;99.90;;;16.31;100.00;101114.34;4150910;28;20115;-75
2023/06/25 04:57:41;;;;;;;3.97;3.13;;;16.70;99.90;;;16.27;100.00;101099.78;4168549;28;20496;-75
2023/06/25 04:59:41;;;;;;;5.25;3.40;;;16.70;99.90;;;16.30;100.00;101103.91;4151311;28;20034;-75
2023/06/25 05:01:43;;;;;;;4.93;3.83;;;16.80;99.90;;;16.36;100.00;101096.00;4167478;28;20465;-75
2023/06/25 05:03:43;;;;;;;6.57;4.25;;;16.80;99.90;;;16.38;100.00;101093.97;4167415;28;20564;-75
2023/06/25 05:05:45;;;;;;;5.30;3.80;;;16.90;99.90;;;16.58;100.00;101105.72;4168667;28;20025;-75
2023/06/25 05:07:47;;;;;;;6.05;4.57;;;17.00;99.90;;;16.66;100.00;101112.81;4167507;28;20030;-75
2023/06/25 05:09:48;;;;;;;5.38;3.75;;;17.00;99.90;;;16.61;100.00;101093.06;4167164;28;20116;-75
2023/06/25 05:11:49;;;;;;;5.07;3.80;;;17.10;99.90;;;16.81;100.00;101118.09;4150845;28;20022;-75
2023/06/25 05:13:50;;;;;;;5.30;3.65;;;17.20;99.90;;;16.84;100.00;101105.25;4183729;28;20040;-76
2023/06/25 05:15:50;;;;;;;5.13;3.80;;;17.20;99.90;;;16.81;100.00;101097.63;4183574;28;20029;-75
2023/06/25 05:17:51;;;;;;;5.22;4.22;;;17.30;99.90;;;16.87;100.00;101093.38;4167344;28;20029;-75
2023/06/25 05:19:52;;;;;;;4.80;3.85;;;17.30;99.90;;;17.03;100.00;101117.09;4167090;28;20049;-75
2023/06/25 05:21:53;;;;;;;4.18;3.67;;;17.40;99.90;;;16.96;100.00;101086.91;4166860;28;20123;-76
2023/06/25 05:24:00;;;;;;;6.10;3.38;;;17.50;99.90;;;17.19;100.00;101108.06;4169381;28;20527;-75
2023/06/25 05:26:00;;;;;;;5.38;3.75;;;17.50;99.90;;;17.15;100.00;101102.25;4170448;28;20076;-76
2023/06/25 05:28:02;;;;;;;5.75;3.90;;;17.60;99.90;;;17.18;100.00;101096.56;4170521;28;20525;-75
2023/06/25 05:30:03;;;;;;;5.00;4.15;;;17.60;99.90;;;17.17;100.00;101091.44;4170233;28;20022;-75
2023/06/25 05:32:05;;;;;;;4.70;3.53;;;17.70;99.90;;;17.38;100.00;101120.75;4171808;28;20030;-75
2023/06/25 05:34:06;;;;;;;5.68;4.25;;;17.70;99.90;;;17.30;100.00;101104.88;4171719;28;20117;-76
2023/06/25 05:36:07;;;;;;;5.88;4.18;;;17.80;99.90;;;17.45;100.00;101119.78;4170425;28;20022;-76
2023/06/25 05:38:08;;;;;;;7.40;3.92;;;17.80;99.90;;;17.43;100.00;101105.84;4171466;28;20045;-75
2023/06/25 05:40:09;;;;;;;6.65;3.92;;;17.90;99.90;;;17.47;100.00;101100.94;4170295;28;20025;-75
2023/06/25 05:42:10;;;;;;;4.95;3.70;;;18.00;99.90;;;17.66;100.00;101114.47;4170183;28;20040;-76
2023/06/25 05:44:11;;;;;;;5.03;3.97;;;18.00;99.90;;;17.70;100.00;101117.59;4170348;28;20021;-75
2023/06/25 05:46:13;;;;;;;5.13;3.97;;;18.10;99.90;;;17.71;100.00;101113.06;4170258;28;20025;-75
2023/06/25 05:48:14;;;;;;;4.85;3.28;;;18.10;99.90;;;17.70;100.00;101096.22;4170405;28;20022;-76
2023/06/25 05:50:15;;;;;;;6.28;3.80;;;18.20;99.90;;;17.77;100.00;101112.31;4170463;28;20493;-75
2023/06/25 05:52:16;;;;;;;4.90;4.05;;;18.20;99.90;;;17.82;100.00;101115.22;4171377;28;20564;-75
2023/06/25 05:54:17;;;;;;;4.63;3.78;;;18.20;99.90;;;17.85;100.00;101107.63;4171058;28;20100;-75
2023/06/25 05:56:18;;;;;;;4.05;3.53;;;18.30;99.90;;;17.84;100.00;101105.16;4157152;28;20037;-75
2023/06/25 05:58:19;;;;;;;5.35;4.38;;;18.30;99.90;;;17.89;100.00;101100.06;4170236;28;20033;-75
2023/06/25 06:00:21;;;;;;;4.35;3.60;;;18.40;99.90;;;18.02;100.00;101111.66;4171167;28;20493;-75
2023/06/25 06:02:22;;;;;;;3.97;3.58;;;18.40;99.90;;;18.10;100.00;101108.81;4170022;28;20049;-75
2023/06/25 06:04:23;;;;;;;5.38;3.65;;;18.50;99.90;;;18.21;100.00;101112.81;4170053;28;20037;-76
2023/06/25 06:06:26;;;;;;;5.80;3.53;;;18.60;99.90;;;18.30;100.00;101108.97;4169880;28;20049;-75
2023/06/25 06:08:27;;;;;;;4.78;3.58;;;18.70;99.90;;;18.33;100.00;101113.06;4169975;28;20030;-75
2023/06/25 06:10:28;;;;;;;5.53;3.72;;;18.70;99.90;;;18.31;100.00;101094.56;4169650;28;20048;-76
2023/06/25 06:12:29;;;;;;;5.45;3.72;;;18.80;99.90;;;18.48;100.00;101111.94;4169894;28;20040;-75
2023/06/25 06:14:30;;;;;;;4.65;3.42;;;18.90;99.90;;;18.58;100.00;101117.75;4153652;28;20105;-75
2023/06/25 06:16:31;;;;;;;4.05;2.90;;;19.00;99.90;;;18.71;100.00;101123.16;4169911;28;20108;-75
2023/06/25 06:18:32;;;;;;;5.05;3.38;;;19.10;99.90;;;18.69;100.00;101114.53;4175475;28;20045;-75
2023/06/25 06:20:33;;;;;;;4.05;2.65;;;19.20;99.90;;;18.78;100.00;101110.66;4187194;28;20051;-75
2023/06/25 06:22:34;;;;;;;4.22;3.08;;;19.20;99.90;;;18.90;100.00;101107.38;4187467;28;20063;-76
2023/06/25 06:24:35;;;;;;;5.15;3.30;;;19.40;99.90;;;19.04;100.00;101114.41;4186142;28;20025;-75
2023/06/25 06:26:36;;;;;;;4.65;3.45;;;19.40;99.90;;;19.14;100.00;101120.22;4169691;28;20024;-75
2023/06/25 06:28:37;;;;;;;4.45;3.10;;;19.50;99.90;;;19.14;100.00;101106.84;4169516;28;20033;-75
2023/06/25 06:30:38;;;;;;;3.78;3.10;;;19.60;99.90;;;19.31;100.00;101119.63;4169649;28;20028;-75
2023/06/25 06:32:38;;;;;;;5.60;3.65;;;19.70;99.90;;;19.26;100.00;101105.22;4169591;28;20025;-75
2023/06/25 06:34:41;;;;;;;5.35;3.47;;;19.80;99.90;;;19.33;100.00;101095.31;4169112;28;20018;-75
2023/06/25 06:36:42;;;;;;;4.25;3.50;;;19.80;99.90;;;19.56;100.00;101119.84;4169480;28;20026;-75
2023/06/25 06:38:43;;;;;;;4.20;3.15;;;19.90;99.90;;;19.63;100.00;101120.69;4187183;28;20108;-76
2023/06/25 06:40:44;;;;;;;4.40;3.25;;;20.00;99.90;;;19.61;100.00;101105.88;4185567;28;20051;-76
2023/06/25 06:42:45;;;;;;;4.13;3.25;;;20.10;99.90;;;19.74;100.00;101113.91;4187137;28;20021;-75
2023/06/25 06:44:46;;;;;;;4.43;3.45;;;20.10;99.90;;;19.81;100.00;101118.22;4169464;28;20080;-75
2023/06/25 06:46:47;;;;;;;4.60;3.88;;;20.20;99.90;;;19.86;100.00;101115.72;4169284;28;20053;-75
2023/06/25 06:48:47;;;;;;;6.65;3.20;;;20.30;99.90;;;19.92;100.00;101099.88;4186989;28;20060;-75
2023/06/25 06:50:48;;;;;;;4.55;3.50;;;20.40;99.90;;;20.02;100.00;101097.59;4186980;28;20108;-75
2023/06/25 06:52:49;;;;;;;5.38;3.60;;;20.50;99.90;;;20.17;100.00;101108.88;4186835;28;20044;-75
2023/06/25 06:54:50;;;;;;;3.95;3.40;;;20.60;99.90;;;20.24;100.00;101097.13;4185641;28;20063;-75
2023/06/25 06:56:51;;;;;;;5.38;3.28;;;20.70;99.90;;;20.36;100.00;101090.13;4186844;28;20533;-75
2023/06/25 06:58:52;;;;;;;5.45;3.65;;;20.80;99.90;;;20.49;100.00;101097.28;4186984;28;20491;-75
2023/06/25 07:00:53;;;;;;;5.95;3.85;;;20.90;99.90;;;20.92;100.00;101110.91;4168814;28;20095;-75
2023/06/25 07:02:56;;;;;;;6.63;4.15;;;21.10;99.90;;;21.31;100.00;101120.59;4186840;28;20496;-75
2023/06/25 07:04:57;;;;;;;5.57;3.40;;;21.30;99.90;;;21.43;100.00;101121.56;4201859;28;20050;-75
2023/06/25 07:06:58;;;;;;;5.30;3.83;;;21.40;99.90;;;21.50;100.00;101123.13;4168896;28;20089;-76
2023/06/25 07:09:00;;;;;;;4.60;3.88;;;21.60;99.90;;;21.50;100.00;101117.75;4186512;28;20025;-76
2023/06/25 07:11:02;;;;;;;6.03;3.40;;;21.70;99.90;;;21.56;100.00;101126.84;4168746;28;20029;-76
2023/06/25 07:13:03;;;;;;;5.60;3.85;;;21.80;99.90;;;21.60;99.29;101125.34;4169277;28;20424;-76
2023/06/25 07:15:04;;;;;;;4.57;3.42;;;21.90;99.90;;;21.64;99.55;101123.03;4186612;28;20037;-75
2023/06/25 07:17:05;;;;;;;4.82;3.88;;;22.00;99.90;;;21.62;100.00;101115.22;4198951;28;20020;-75
2023/06/25 07:19:06;;;;;;;4.97;3.38;;;22.00;99.90;;;21.65;100.00;101122.00;4168898;28;20139;-76
2023/06/25 07:21:07;;;;;;;4.00;3.35;;;22.10;99.90;;;21.60;100.00;101117.28;4169047;28;20030;-76
2023/06/25 07:23:07;;;;;;;4.03;3.22;;;22.10;99.90;;;21.74;100.00;101132.28;4168709;28;20132;-75
2023/06/25 07:25:10;;;;;;;5.00;3.35;;;22.20;99.90;;;21.70;100.00;101123.00;4186361;28;20029;-76
2023/06/25 07:27:11;;;;;;;5.20;3.55;;;22.20;99.90;;;21.80;99.44;101112.56;4168913;28;20084;-76
2023/06/25 07:29:12;;;;;;;4.43;3.33;;;22.30;99.90;;;21.86;99.31;101111.69;4168599;28;20021;-75
2023/06/25 07:31:13;;;;;;;5.55;3.80;;;22.30;99.90;;;22.02;96.94;101110.31;4152192;28;20524;-76
2023/06/25 07:33:13;;;;;;;4.88;3.35;;;22.50;99.90;;;22.20;96.69;101115.72;4152347;28;20026;-76
2023/06/25 07:35:14;;;;;;;4.07;3.20;;;22.60;99.90;;;22.30;96.74;101126.78;4185078;28;20044;-76
2023/06/25 07:37:15;;;;;;;4.68;3.50;;;22.70;99.90;;;22.39;96.79;101127.31;4186154;28;20029;-76
2023/06/25 07:39:42;;;;;;;6.70;3.50;;;22.80;99.90;;;22.46;95.31;101123.47;4185961;28;20036;-76
2023/06/25 07:41:43;;;;;;;4.63;3.53;;;22.90;99.90;;;22.50;93.02;101108.56;4182279;28;20041;-76
2023/06/25 07:43:44;;;;;;;4.75;3.70;;;23.00;99.90;;;22.70;91.01;101119.09;4185882;28;20036;-76
2023/06/25 07:45:45;;;;;;;5.50;3.50;;;23.10;99.90;;;22.90;89.55;101125.06;4185396;28;20025;-76
2023/06/25 07:47:46;;;;;;;3.90;3.38;;;23.30;99.90;;;23.05;87.50;101128.16;4151968;28;20030;-75
2023/06/25 07:49:47;;;;;;;3.97;3.20;;;23.40;99.90;;;23.17;87.34;101124.69;4186233;28;20017;-76
2023/06/25 07:51:53;;;;;;;4.13;3.47;;;23.60;99.90;;;23.29;86.53;101129.06;4152152;28;20037;-75
2023/06/25 07:53:54;;;;;;;3.40;2.70;;;23.70;99.90;;;23.40;85.73;101124.78;4168591;28;20063;-76
2023/06/25 07:55:55;;;;;;;8.75;3.40;;;23.80;99.90;;;23.56;85.28;101119.56;4167583;28;20037;-76
2023/06/25 07:57:56;;;;;;;4.88;3.33;;;23.90;99.90;;;23.59;85.50;101110.19;4197120;28;20029;-75
2023/06/25 07:59:57;;;;;;;5.72;3.63;;;24.10;99.90;;;23.84;83.82;101135.03;4168254;28;20030;-76
2023/06/25 08:01:58;;;;;;;4.05;3.42;;;24.10;99.90;;;23.87;81.95;101112.16;4185990;28;20025;-76
2023/06/25 08:03:58;;;;;;;5.20;3.15;;;24.30;99.90;;;24.09;80.15;101132.94;4168003;28;20485;-76
2023/06/25 08:05:59;;;;;;;6.13;3.15;;;24.40;99.90;;;24.24;79.89;101127.09;4185777;28;20040;-76
2023/06/25 08:08:00;;;;;;;5.25;3.45;;;24.60;99.90;;;24.37;79.14;101132.19;4167971;28;20017;-76
2023/06/25 08:10:02;;;;;;;4.70;3.60;;;24.70;99.90;;;24.46;78.67;101124.59;4185480;28;20053;-76
2023/06/25 08:12:03;;;;;;;4.13;3.22;;;24.80;99.90;;;24.58;78.12;101118.09;4185150;28;20029;-75
2023/06/25 08:14:04;;;;;;;6.85;3.67;;;24.90;99.90;;;24.70;77.88;101120.78;4185723;28;20484;-76
2023/06/25 08:16:05;;;;;;;4.05;3.30;;;25.00;99.90;;;24.90;73.22;101126.59;4185677;28;20059;-76
2023/06/25 08:18:06;;;;;;;4.82;2.90;;;25.20;99.60;;;25.04;72.10;101121.72;4184263;28;20025;-76
2023/06/25 08:20:07;;;;;;;3.70;3.13;;;25.30;99.40;;;25.14;70.60;101108.41;4167900;28;20036;-76
2023/06/25 08:22:08;;;;;;;6.20;3.33;;;25.50;99.00;;;25.42;69.42;101112.94;4167574;28;20029;-76